CheckWX is a tool to help pilots better visualize weather data.  It is not intended as a substitute for an official pre-flight weather briefing.

16:34:23 UTC

KLDJ METAR
Linden Airport
Linden, New Jersey, USA
Current

19 mins ago

KLDJ 251615Z AUTO 10017G21KT 3SM RA OVC005 07/05 A2993 RMK AO2 P0001 T00650054
Observed
Jan-25 @ 16:15 UTC
Wind
  • 100° at 17 KTS
  • Gusting to 21 KTS
Visibility
3 SM
Flight Rules
IFR
Conditions
Rain
Cloud Levels
  • Overcast at 500' AGL
Temperature
C / 45°F
Dewpoint
C / 41°F
Humidity
87%
Altimeter
29.93" Hg
Pressure
1013.52 hPa
Current Rain
0.01"
Previous

39 mins ago

KLDJ 251555Z AUTO 10014G19KT 3SM -RA OVC005 06/05 A2997 RMK AO2 T00600050
Observed
Jan-25 @ 15:55 UTC
Wind
  • 100° at 14 KTS
  • Gusting to 19 KTS
Visibility
3 SM
Flight Rules
IFR
Conditions
Light Rain
Cloud Levels
  • Overcast at 500' AGL
Temperature
C / 43°F
Dewpoint
C / 41°F
Humidity
93%
Altimeter
29.97" Hg
Pressure
1014.92 hPa
Previous

59 mins ago

KLDJ 251535Z AUTO 09014KT 1 3/4SM -RA OVC005 06/05 A2997 RMK AO2 T00570045
Observed
Jan-25 @ 15:35 UTC
Wind
  • 090° at 14 KTS
Visibility
1 3/4 SM
Flight Rules
IFR
Conditions
Light Rain
Cloud Levels
  • Overcast at 500' AGL
Temperature
C / 43°F
Dewpoint
C / 41°F
Humidity
93%
Altimeter
29.97" Hg
Pressure
1014.92 hPa